sensor_id;sensor_type;location;lat;lon;timestamp;pressure;altitude;pressure_sealevel;temperature;humidity
46111;BME280;31849;55.992;37.252;2022-09-09T00:04:44;99868.25;;;6.07;67.87
46111;BME280;31849;55.992;37.252;2022-09-09T00:09:55;99871.78;;;6.12;67.14
46111;BME280;31849;55.992;37.252;2022-09-09T00:15:07;99873.59;;;6.16;67.53
46111;BME280;31849;55.992;37.252;2022-09-09T00:20:23;99869.97;;;6.08;67.03
46111;BME280;31849;55.992;37.252;2022-09-09T00:25:37;99876.53;;;5.95;67.81
46111;BME280;31849;55.992;37.252;2022-09-09T00:30:45;99876.94;;;5.76;67.57
46111;BME280;31849;55.992;37.252;2022-09-09T00:35:53;99885.38;;;5.69;67.45
46111;BME280;31849;55.992;37.252;2022-09-09T00:41:02;99893.09;;;5.67;67.50
46111;BME280;31849;55.992;37.252;2022-09-09T00:46:44;99893.13;;;5.69;68.10
46111;BME280;31849;55.992;37.252;2022-09-09T00:52:01;99890.25;;;5.58;67.52
46111;BME280;31849;55.992;37.252;2022-09-09T00:57:15;99895.94;;;5.44;68.20
46111;BME280;31849;55.992;37.252;2022-09-09T01:02:28;99899.09;;;5.33;68.21
46111;BME280;31849;55.992;37.252;2022-09-09T01:07:34;99900.44;;;5.18;68.62
46111;BME280;31849;55.992;37.252;2022-09-09T01:12:43;99910.63;;;5.14;68.75
46111;BME280;31849;55.992;37.252;2022-09-09T01:17:55;99911.31;;;5.06;68.81
46111;BME280;31849;55.992;37.252;2022-09-09T01:28:32;99912.25;;;5.10;68.72
46111;BME280;31849;55.992;37.252;2022-09-09T01:33:38;99927.75;;;5.11;68.45
46111;BME280;31849;55.992;37.252;2022-09-09T01:38:42;99895.44;;;4.92;68.56
46111;BME280;31849;55.992;37.252;2022-09-09T01:43:48;99932.81;;;5.08;68.83
46111;BME280;31849;55.992;37.252;2022-09-09T01:48:56;99933.53;;;5.03;69.23
46111;BME280;31849;55.992;37.252;2022-09-09T01:54:01;99932.50;;;4.96;68.46
46111;BME280;31849;55.992;37.252;2022-09-09T01:59:19;99940.19;;;4.95;69.63
46111;BME280;31849;55.992;37.252;2022-09-09T02:04:36;99952.19;;;4.94;69.75
46111;BME280;31849;55.992;37.252;2022-09-09T02:09:43;99949.59;;;4.94;69.20
46111;BME280;31849;55.992;37.252;2022-09-09T02:15:07;99951.28;;;4.92;69.62
46111;BME280;31849;55.992;37.252;2022-09-09T02:20:15;99951.94;;;4.85;68.92
46111;BME280;31849;55.992;37.252;2022-09-09T02:25:22;99961.81;;;4.69;69.54
46111;BME280;31849;55.992;37.252;2022-09-09T02:30:32;99959.66;;;4.54;69.10
46111;BME280;31849;55.992;37.252;2022-09-09T02:35:37;99966.94;;;4.40;69.38
46111;BME280;31849;55.992;37.252;2022-09-09T02:40:42;99973.56;;;4.32;69.90
46111;BME280;31849;55.992;37.252;2022-09-09T02:45:53;99961.25;;;4.22;70.45
46111;BME280;31849;55.992;37.252;2022-09-09T02:51:07;99981.75;;;4.19;69.69
46111;BME280;31849;55.992;37.252;2022-09-09T02:56:15;99983.13;;;4.09;70.57
46111;BME280;31849;55.992;37.252;2022-09-09T03:01:22;99988.94;;;4.03;70.07
46111;BME280;31849;55.992;37.252;2022-09-09T03:06:27;99994.94;;;4.02;70.28
46111;BME280;31849;55.992;37.252;2022-09-09T03:11:31;99994.13;;;4.05;70.26
46111;BME280;31849;55.992;37.252;2022-09-09T03:16:36;100001.09;;;4.08;69.62
46111;BME280;31849;55.992;37.252;2022-09-09T03:21:40;100004.72;;;4.13;69.49
46111;BME280;31849;55.992;37.252;2022-09-09T03:26:43;100008.91;;;4.11;70.06
46111;BME280;31849;55.992;37.252;2022-09-09T03:31:49;100010.91;;;4.19;69.77
46111;BME280;31849;55.992;37.252;2022-09-09T03:36:53;100013.91;;;4.33;70.35
46111;BME280;31849;55.992;37.252;2022-09-09T03:41:57;100019.69;;;4.53;70.14
46111;BME280;31849;55.992;37.252;2022-09-09T03:47:02;100019.16;;;4.64;69.50
46111;BME280;31849;55.992;37.252;2022-09-09T03:52:08;100016.63;;;4.65;69.81
46111;BME280;31849;55.992;37.252;2022-09-09T03:57:11;100022.88;;;4.73;69.18
46111;BME280;31849;55.992;37.252;2022-09-09T04:02:21;100027.50;;;4.85;69.11
46111;BME280;31849;55.992;37.252;2022-09-09T04:07:26;100028.84;;;6.67;64.97
46111;BME280;31849;55.992;37.252;2022-09-09T04:12:30;100023.00;;;14.29;46.80
46111;BME280;31849;55.992;37.252;2022-09-09T04:17:35;100011.66;;;19.09;37.67
46111;BME280;31849;55.992;37.252;2022-09-09T04:22:39;100018.34;;;20.08;34.85
46111;BME280;31849;55.992;37.252;2022-09-09T04:27:43;100028.16;;;14.37;44.71
46111;BME280;31849;55.992;37.252;2022-09-09T04:32:48;100025.44;;;11.43;50.75
46111;BME280;31849;55.992;37.252;2022-09-09T04:37:52;100033.06;;;9.81;54.33
46111;BME280;31849;55.992;37.252;2022-09-09T04:42:57;100033.75;;;8.93;56.18
46111;BME280;31849;55.992;37.252;2022-09-09T04:48:02;100034.47;;;8.26;58.04
46111;BME280;31849;55.992;37.252;2022-09-09T04:53:06;100050.97;;;7.82;58.64
46111;BME280;31849;55.992;37.252;2022-09-09T04:58:11;100044.72;;;7.69;59.71
46111;BME280;31849;55.992;37.252;2022-09-09T05:03:16;100044.16;;;10.66;54.54
46111;BME280;31849;55.992;37.252;2022-09-09T05:08:20;100044.38;;;20.18;35.71
46111;BME280;31849;55.992;37.252;2022-09-09T05:13:25;100050.03;;;24.93;28.09
46111;BME280;31849;55.992;37.252;2022-09-09T05:18:30;100051.66;;;28.14;24.05
46111;BME280;31849;55.992;37.252;2022-09-09T05:23:34;100056.06;;;29.95;21.87
46111;BME280;31849;55.992;37.252;2022-09-09T05:28:38;100066.28;;;31.87;19.60
46111;BME280;31849;55.992;37.252;2022-09-09T05:33:46;100076.41;;;32.60;18.29
46111;BME280;31849;55.992;37.252;2022-09-09T05:38:51;100071.91;;;33.34;17.48
46111;BME280;31849;55.992;37.252;2022-09-09T05:43:56;100076.81;;;34.20;16.34
46111;BME280;31849;55.992;37.252;2022-09-09T05:49:02;100076.16;;;34.37;15.78
46111;BME280;31849;55.992;37.252;2022-09-09T05:54:07;100085.78;;;34.49;15.56
46111;BME280;31849;55.992;37.252;2022-09-09T05:59:10;100071.47;;;35.16;16.40
46111;BME280;31849;55.992;37.252;2022-09-09T06:04:16;100079.44;;;35.45;14.27
46111;BME280;31849;55.992;37.252;2022-09-09T06:09:20;100082.47;;;36.52;13.89
46111;BME280;31849;55.992;37.252;2022-09-09T06:14:25;100096.72;;;37.24;13.11
46111;BME280;31849;55.992;37.252;2022-09-09T06:19:30;100094.09;;;36.88;13.22
46111;BME280;31849;55.992;37.252;2022-09-09T06:24:34;100103.53;;;34.91;14.13
46111;BME280;31849;55.992;37.252;2022-09-09T06:29:37;100101.03;;;33.80;14.97
46111;BME280;31849;55.992;37.252;2022-09-09T06:34:42;100096.59;;;34.79;14.04
46111;BME280;31849;55.992;37.252;2022-09-09T06:39:48;100105.69;;;34.87;13.76
46111;BME280;31849;55.992;37.252;2022-09-09T06:44:53;100115.91;;;37.13;11.62
46111;BME280;31849;55.992;37.252;2022-09-09T06:49:58;100112.84;;;39.02;10.83
46111;BME280;31849;55.992;37.252;2022-09-09T06:55:02;100118.75;;;34.73;13.33
46111;BME280;31849;55.992;37.252;2022-09-09T07:00:07;100113.72;;;31.09;16.04
46111;BME280;31849;55.992;37.252;2022-09-09T07:05:13;100111.94;;;25.80;20.19
46111;BME280;31849;55.992;37.252;2022-09-09T07:10:17;100106.78;;;25.77;20.76
46111;BME280;31849;55.992;37.252;2022-09-09T07:15:22;100113.03;;;24.39;21.33
46111;BME280;31849;55.992;37.252;2022-09-09T07:20:26;100106.03;;;25.08;21.84
46111;BME280;31849;55.992;37.252;2022-09-09T07:25:30;100105.72;;;23.69;22.92
46111;BME280;31849;55.992;37.252;2022-09-09T07:30:34;100126.59;;;21.64;24.76
46111;BME280;31849;55.992;37.252;2022-09-09T07:35:39;100128.00;;;19.90;27.19
46111;BME280;31849;55.992;37.252;2022-09-09T07:40:44;100130.16;;;18.42;29.33
46111;BME280;31849;55.992;37.252;2022-09-09T07:45:47;100137.84;;;21.20;26.62
46111;BME280;31849;55.992;37.252;2022-09-09T07:51:01;100143.28;;;20.90;26.93
46111;BME280;31849;55.992;37.252;2022-09-09T07:56:08;100146.75;;;19.47;28.54
46111;BME280;31849;55.992;37.252;2022-09-09T08:01:14;100154.13;;;18.30;30.27
46111;BME280;31849;55.992;37.252;2022-09-09T08:06:22;100146.25;;;19.97;28.69
46111;BME280;31849;55.992;37.252;2022-09-09T08:11:28;100152.31;;;26.06;21.31
46111;BME280;31849;55.992;37.252;2022-09-09T08:16:39;100149.91;;;27.96;19.41
46111;BME280;31849;55.992;37.252;2022-09-09T08:21:45;100147.00;;;27.58;19.83
46111;BME280;31849;55.992;37.252;2022-09-09T08:26:51;100150.94;;;24.97;22.03
46111;BME280;31849;55.992;37.252;2022-09-09T08:31:57;100151.44;;;21.83;25.38
46111;BME280;31849;55.992;37.252;2022-09-09T08:37:02;100167.72;;;19.85;27.38
46111;BME280;31849;55.992;37.252;2022-09-09T08:47:37;100166.31;;;20.03;28.50
46111;BME280;31849;55.992;37.252;2022-09-09T08:52:50;100172.53;;;18.31;29.71
46111;BME280;31849;55.992;37.252;2022-09-09T08:57:56;100170.38;;;17.20;32.13
46111;BME280;31849;55.992;37.252;2022-09-09T09:03:07;100164.09;;;16.78;32.67
46111;BME280;31849;55.992;37.252;2022-09-09T09:08:22;100163.47;;;16.62;31.85
46111;BME280;31849;55.992;37.252;2022-09-09T09:13:34;100170.03;;;16.31;32.43
46111;BME280;31849;55.992;37.252;2022-09-09T09:18:45;100165.53;;;15.79;33.57
46111;BME280;31849;55.992;37.252;2022-09-09T09:23:56;100172.28;;;15.19;34.73
46111;BME280;31849;55.992;37.252;2022-09-09T09:29:07;100156.78;;;14.94;35.62
46111;BME280;31849;55.992;37.252;2022-09-09T09:34:13;100178.63;;;14.93;35.52
46111;BME280;31849;55.992;37.252;2022-09-09T09:40:06;100165.94;;;15.40;35.06
46111;BME280;31849;55.992;37.252;2022-09-09T09:51:21;100166.78;;;16.17;33.83
46111;BME280;31849;55.992;37.252;2022-09-09T09:56:28;100160.13;;;16.52;33.18
46111;BME280;31849;55.992;37.252;2022-09-09T10:01:35;100176.00;;;16.44;33.27
46111;BME280;31849;55.992;37.252;2022-09-09T10:07:18;100174.03;;;16.59;33.67
46111;BME280;31849;55.992;37.252;2022-09-09T10:12:34;100174.47;;;16.87;33.47
46111;BME280;31849;55.992;37.252;2022-09-09T10:17:54;100166.19;;;17.10;32.62
46111;BME280;31849;55.992;37.252;2022-09-09T10:24:02;100164.97;;;17.30;31.77
46111;BME280;31849;55.992;37.252;2022-09-09T10:29:38;100175.47;;;16.78;31.39
46111;BME280;31849;55.992;37.252;2022-09-09T10:34:56;100186.44;;;16.47;32.24
46111;BME280;31849;55.992;37.252;2022-09-09T10:40:14;100176.59;;;16.01;32.89
46111;BME280;31849;55.992;37.252;2022-09-09T10:45:26;100183.38;;;15.44;33.67
46111;BME280;31849;55.992;37.252;2022-09-09T10:50:47;100180.72;;;15.46;34.21
46111;BME280;31849;55.992;37.252;2022-09-09T10:56:08;100186.16;;;15.30;35.02
46111;BME280;31849;55.992;37.252;2022-09-09T11:07:26;100177.56;;;15.15;35.59
46111;BME280;31849;55.992;37.252;2022-09-09T11:12:36;100177.03;;;14.74;35.98
46111;BME280;31849;55.992;37.252;2022-09-09T11:17:44;100173.63;;;14.66;35.47
46111;BME280;31849;55.992;37.252;2022-09-09T11:22:57;100162.31;;;14.56;35.30
46111;BME280;31849;55.992;37.252;2022-09-09T11:28:14;100164.81;;;14.77;34.61
46111;BME280;31849;55.992;37.252;2022-09-09T11:33:42;100158.19;;;15.29;33.89
46111;BME280;31849;55.992;37.252;2022-09-09T11:38:57;100157.44;;;15.96;32.98
46111;BME280;31849;55.992;37.252;2022-09-09T11:44:10;100152.47;;;16.38;31.76
46111;BME280;31849;55.992;37.252;2022-09-09T11:49:27;100159.22;;;16.53;32.87
46111;BME280;31849;55.992;37.252;2022-09-09T11:54:46;100158.56;;;16.39;33.19
46111;BME280;31849;55.992;37.252;2022-09-09T11:59:51;100168.78;;;15.98;33.99
46111;BME280;31849;55.992;37.252;2022-09-09T12:04:58;100164.84;;;15.60;35.01
46111;BME280;31849;55.992;37.252;2022-09-09T12:10:33;100164.81;;;15.61;34.40
46111;BME280;31849;55.992;37.252;2022-09-09T12:15:47;100159.84;;;15.38;35.34
46111;BME280;31849;55.992;37.252;2022-09-09T12:20:57;100160.88;;;15.23;33.85
46111;BME280;31849;55.992;37.252;2022-09-09T12:26:34;100161.28;;;14.82;35.30
46111;BME280;31849;55.992;37.252;2022-09-09T12:32:06;100154.09;;;15.02;35.18
46111;BME280;31849;55.992;37.252;2022-09-09T12:37:16;100137.22;;;15.31;35.05
46111;BME280;31849;55.992;37.252;2022-09-09T12:42:26;100149.13;;;15.58;34.56
46111;BME280;31849;55.992;37.252;2022-09-09T12:47:41;100154.28;;;15.66;34.32
46111;BME280;31849;55.992;37.252;2022-09-09T12:52:49;100164.00;;;15.56;34.10
46111;BME280;31849;55.992;37.252;2022-09-09T12:57:56;100161.75;;;15.24;34.65
46111;BME280;31849;55.992;37.252;2022-09-09T13:03:13;100152.44;;;14.90;34.69
46111;BME280;31849;55.992;37.252;2022-09-09T13:08:22;100150.09;;;14.59;34.57
46111;BME280;31849;55.992;37.252;2022-09-09T13:13:31;100156.31;;;14.41;34.41
46111;BME280;31849;55.992;37.252;2022-09-09T13:18:41;100151.88;;;14.51;35.02
46111;BME280;31849;55.992;37.252;2022-09-09T13:23:50;100153.56;;;14.65;35.43
46111;BME280;31849;55.992;37.252;2022-09-09T13:29:09;100145.63;;;14.74;35.02
46111;BME280;31849;55.992;37.252;2022-09-09T13:34:27;100154.47;;;14.54;33.86
46111;BME280;31849;55.992;37.252;2022-09-09T13:39:32;100160.78;;;14.24;35.17
46111;BME280;31849;55.992;37.252;2022-09-09T13:44:40;100160.94;;;13.96;35.38
46111;BME280;31849;55.992;37.252;2022-09-09T13:49:46;100143.66;;;13.66;36.00
46111;BME280;31849;55.992;37.252;2022-09-09T13:54:51;100144.63;;;13.35;36.52
46111;BME280;31849;55.992;37.252;2022-09-09T13:59:58;100149.88;;;13.17;37.85
46111;BME280;31849;55.992;37.252;2022-09-09T14:05:07;100144.66;;;13.03;38.47
46111;BME280;31849;55.992;37.252;2022-09-09T14:10:11;100145.50;;;13.20;37.80
46111;BME280;31849;55.992;37.252;2022-09-09T14:15:17;100140.25;;;13.27;38.27
46111;BME280;31849;55.992;37.252;2022-09-09T14:20:22;100134.16;;;13.52;37.85
46111;BME280;31849;55.992;37.252;2022-09-09T14:25:26;100138.31;;;13.89;37.08
46111;BME280;31849;55.992;37.252;2022-09-09T14:30:33;100139.13;;;14.00;36.75
46111;BME280;31849;55.992;37.252;2022-09-09T14:35:37;100139.94;;;14.15;36.76
46111;BME280;31849;55.992;37.252;2022-09-09T14:40:45;100132.88;;;14.26;35.98
46111;BME280;31849;55.992;37.252;2022-09-09T14:45:52;100145.09;;;14.25;36.09
46111;BME280;31849;55.992;37.252;2022-09-09T14:51:05;100135.97;;;14.82;34.42
46111;BME280;31849;55.992;37.252;2022-09-09T14:56:10;100136.47;;;14.11;35.31
46111;BME280;31849;55.992;37.252;2022-09-09T15:01:18;100136.69;;;13.68;36.14
46111;BME280;31849;55.992;37.252;2022-09-09T15:06:23;100139.38;;;13.40;36.87
46111;BME280;31849;55.992;37.252;2022-09-09T15:11:29;100137.63;;;13.33;36.83
46111;BME280;31849;55.992;37.252;2022-09-09T15:16:36;100134.25;;;12.88;37.42
46111;BME280;31849;55.992;37.252;2022-09-09T15:21:42;100142.97;;;12.62;38.41
46111;BME280;31849;55.992;37.252;2022-09-09T15:26:46;100136.88;;;12.46;38.65
46111;BME280;31849;55.992;37.252;2022-09-09T15:31:53;100145.53;;;12.25;39.44
46111;BME280;31849;55.992;37.252;2022-09-09T15:36:58;100148.94;;;12.02;39.79
46111;BME280;31849;55.992;37.252;2022-09-09T15:42:03;100146.25;;;11.81;40.86
46111;BME280;31849;55.992;37.252;2022-09-09T15:47:10;100147.91;;;11.60;42.62
46111;BME280;31849;55.992;37.252;2022-09-09T15:52:17;100157.34;;;11.35;43.44
46111;BME280;31849;55.992;37.252;2022-09-09T15:57:20;100166.72;;;11.11;44.33
46111;BME280;31849;55.992;37.252;2022-09-09T16:02:26;100174.31;;;10.82;45.97
46111;BME280;31849;55.992;37.252;2022-09-09T16:07:30;100182.78;;;10.56;46.44
46111;BME280;31849;55.992;37.252;2022-09-09T16:12:34;100181.66;;;10.32;47.54
46111;BME280;31849;55.992;37.252;2022-09-09T16:17:39;100177.91;;;10.07;48.75
46111;BME280;31849;55.992;37.252;2022-09-09T16:22:44;100183.78;;;9.89;49.08
46111;BME280;31849;55.992;37.252;2022-09-09T16:27:47;100196.50;;;9.69;49.94
46111;BME280;31849;55.992;37.252;2022-09-09T16:32:54;100191.00;;;9.44;51.03
46111;BME280;31849;55.992;37.252;2022-09-09T16:37:57;100199.31;;;9.23;51.43
46111;BME280;31849;55.992;37.252;2022-09-09T16:43:02;100204.19;;;9.02;50.87
46111;BME280;31849;55.992;37.252;2022-09-09T16:48:07;100191.78;;;8.80;52.38
46111;BME280;31849;55.992;37.252;2022-09-09T16:53:12;100196.66;;;8.63;52.77
46111;BME280;31849;55.992;37.252;2022-09-09T16:58:15;100202.50;;;8.52;53.50
46111;BME280;31849;55.992;37.252;2022-09-09T17:03:22;100204.00;;;8.40;54.40
46111;BME280;31849;55.992;37.252;2022-09-09T17:08:25;100210.59;;;8.23;54.87
46111;BME280;31849;55.992;37.252;2022-09-09T17:13:31;100212.81;;;8.06;56.10
46111;BME280;31849;55.992;37.252;2022-09-09T17:18:36;100219.44;;;7.90;55.98
46111;BME280;31849;55.992;37.252;2022-09-09T17:23:42;100217.38;;;7.73;56.23
46111;BME280;31849;55.992;37.252;2022-09-09T17:28:45;100226.56;;;7.61;56.59
46111;BME280;31849;55.992;37.252;2022-09-09T17:33:51;100229.81;;;7.50;57.43
46111;BME280;31849;55.992;37.252;2022-09-09T17:38:55;100232.19;;;7.41;57.63
46111;BME280;31849;55.992;37.252;2022-09-09T17:44:00;100227.63;;;7.31;57.39
46111;BME280;31849;55.992;37.252;2022-09-09T17:49:07;100231.78;;;7.24;57.99
46111;BME280;31849;55.992;37.252;2022-09-09T17:54:14;100234.13;;;7.13;57.67
46111;BME280;31849;55.992;37.252;2022-09-09T17:59:19;100243.38;;;7.05;58.00
46111;BME280;31849;55.992;37.252;2022-09-09T18:04:25;100242.34;;;6.97;58.92
46111;BME280;31849;55.992;37.252;2022-09-09T18:09:29;100239.47;;;6.84;58.56
46111;BME280;31849;55.992;37.252;2022-09-09T18:14:34;100234.94;;;6.76;58.99
46111;BME280;31849;55.992;37.252;2022-09-09T18:19:39;100236.28;;;6.61;59.34
46111;BME280;31849;55.992;37.252;2022-09-09T18:24:44;100216.16;;;6.49;59.09
46111;BME280;31849;55.992;37.252;2022-09-09T18:29:49;100221.28;;;6.48;59.42
46111;BME280;31849;55.992;37.252;2022-09-09T18:34:54;100228.84;;;6.40;60.16
46111;BME280;31849;55.992;37.252;2022-09-09T18:40:00;100232.09;;;6.33;59.81
46111;BME280;31849;55.992;37.252;2022-09-09T18:45:06;100232.72;;;6.24;60.04
46111;BME280;31849;55.992;37.252;2022-09-09T18:50:11;100232.34;;;6.10;60.15
46111;BME280;31849;55.992;37.252;2022-09-09T18:55:15;100222.25;;;5.91;60.99
46111;BME280;31849;55.992;37.252;2022-09-09T19:00:19;100230.88;;;5.90;60.48
46111;BME280;31849;55.992;37.252;2022-09-09T19:05:24;100239.38;;;5.87;61.12
46111;BME280;31849;55.992;37.252;2022-09-09T19:10:29;100251.28;;;5.82;60.83
46111;BME280;31849;55.992;37.252;2022-09-09T19:15:34;100246.91;;;5.79;60.69
46111;BME280;31849;55.992;37.252;2022-09-09T19:20:40;100243.06;;;5.67;61.46
46111;BME280;31849;55.992;37.252;2022-09-09T19:25:45;100243.72;;;5.59;60.38
46111;BME280;31849;55.992;37.252;2022-09-09T19:30:53;100244.53;;;5.57;60.90
46111;BME280;31849;55.992;37.252;2022-09-09T19:36:01;100256.53;;;5.56;60.68
46111;BME280;31849;55.992;37.252;2022-09-09T19:41:08;100250.38;;;5.51;60.86
46111;BME280;31849;55.992;37.252;2022-09-09T19:46:13;100251.13;;;5.49;60.41
46111;BME280;31849;55.992;37.252;2022-09-09T19:51:19;100252.81;;;5.46;60.18
46111;BME280;31849;55.992;37.252;2022-09-09T19:56:26;100253.44;;;5.39;61.35
46111;BME280;31849;55.992;37.252;2022-09-09T20:01:31;100262.75;;;5.36;60.80
46111;BME280;31849;55.992;37.252;2022-09-09T20:06:43;100260.84;;;5.28;61.16
46111;BME280;31849;55.992;37.252;2022-09-09T20:11:48;100260.56;;;5.21;61.03
46111;BME280;31849;55.992;37.252;2022-09-09T20:16:53;100267.31;;;5.16;61.61
46111;BME280;31849;55.992;37.252;2022-09-09T20:21:59;100271.41;;;5.10;59.73
46111;BME280;31849;55.992;37.252;2022-09-09T20:27:04;100282.16;;;4.97;61.84
46111;BME280;31849;55.992;37.252;2022-09-09T20:32:09;100289.63;;;4.89;62.14
46111;BME280;31849;55.992;37.252;2022-09-09T20:37:15;100285.38;;;4.90;61.76
46111;BME280;31849;55.992;37.252;2022-09-09T20:42:19;100285.13;;;4.84;62.00
46111;BME280;31849;55.992;37.252;2022-09-09T20:47:23;100287.72;;;4.84;61.94
46111;BME280;31849;55.992;37.252;2022-09-09T20:52:29;100287.59;;;4.81;62.29
46111;BME280;31849;55.992;37.252;2022-09-09T20:57:35;100284.13;;;4.79;62.05
46111;BME280;31849;55.992;37.252;2022-09-09T21:02:39;100289.81;;;4.70;62.20
46111;BME280;31849;55.992;37.252;2022-09-09T21:07:44;100283.59;;;4.63;62.27
46111;BME280;31849;55.992;37.252;2022-09-09T21:12:48;100285.72;;;4.51;62.37
46111;BME280;31849;55.992;37.252;2022-09-09T21:17:51;100286.22;;;4.40;62.70
46111;BME280;31849;55.992;37.252;2022-09-09T21:22:58;100282.34;;;4.28;63.12
46111;BME280;31849;55.992;37.252;2022-09-09T21:28:02;100283.91;;;4.24;62.76
46111;BME280;31849;55.992;37.252;2022-09-09T21:33:08;100291.31;;;4.15;63.23
46111;BME280;31849;55.992;37.252;2022-09-09T21:38:16;100291.91;;;4.08;63.20
46111;BME280;31849;55.992;37.252;2022-09-09T21:43:20;100298.47;;;3.99;63.06
46111;BME280;31849;55.992;37.252;2022-09-09T21:48:24;100309.34;;;3.92;62.51
46111;BME280;31849;55.992;37.252;2022-09-09T21:53:30;100303.41;;;3.95;62.56
46111;BME280;31849;55.992;37.252;2022-09-09T21:58:35;100272.84;;;3.80;62.21
46111;BME280;31849;55.992;37.252;2022-09-09T22:03:39;100309.59;;;3.98;62.23
46111;BME280;31849;55.992;37.252;2022-09-09T22:08:45;100307.13;;;4.01;62.37
46111;BME280;31849;55.992;37.252;2022-09-09T22:13:50;100306.06;;;3.96;62.47
46111;BME280;31849;55.992;37.252;2022-09-09T22:18:57;100305.25;;;3.97;62.54
46111;BME280;31849;55.992;37.252;2022-09-09T22:24:04;100304.22;;;3.92;62.72
46111;BME280;31849;55.992;37.252;2022-09-09T22:29:08;100312.28;;;3.79;62.98
46111;BME280;31849;55.992;37.252;2022-09-09T22:34:13;100309.59;;;3.76;62.59
46111;BME280;31849;55.992;37.252;2022-09-09T22:39:18;100309.59;;;3.76;62.59
46111;BME280;31849;55.992;37.252;2022-09-09T22:44:22;100303.31;;;3.69;62.14
46111;BME280;31849;55.992;37.252;2022-09-09T22:49:26;100299.88;;;3.68;62.75
46111;BME280;31849;55.992;37.252;2022-09-09T22:54:31;100304.72;;;3.61;63.29
46111;BME280;31849;55.992;37.252;2022-09-09T22:59:35;100309.78;;;3.59;62.85
46111;BME280;31849;55.992;37.252;2022-09-09T23:04:40;100312.44;;;3.61;62.83
46111;BME280;31849;55.992;37.252;2022-09-09T23:09:44;100316.75;;;3.62;63.45
46111;BME280;31849;55.992;37.252;2022-09-09T23:14:49;100315.00;;;3.61;63.19
46111;BME280;31849;55.992;37.252;2022-09-09T23:19:55;100320.06;;;3.59;62.89
46111;BME280;31849;55.992;37.252;2022-09-09T23:25:02;100314.81;;;3.56;63.10
46111;BME280;31849;55.992;37.252;2022-09-09T23:30:07;100311.88;;;3.47;63.41
46111;BME280;31849;55.992;37.252;2022-09-09T23:35:13;100303.91;;;3.41;63.16
46111;BME280;31849;55.992;37.252;2022-09-09T23:40:18;100311.81;;;3.45;62.63
46111;BME280;31849;55.992;37.252;2022-09-09T23:45:22;100283.50;;;3.23;63.11
46111;BME280;31849;55.992;37.252;2022-09-09T23:50:26;100316.72;;;3.39;62.98
46111;BME280;31849;55.992;37.252;2022-09-09T23:55:32;100320.47;;;3.26;63.22
